• Join FlightAware (Why Join?)
  • Login
  • US Flag 
08:35AM EDT


 

Airport Tracker/Info


-or-


 

Live Flight TrackerFlight Track Log ✈ TCF3494 ✈ 16-Jul-2013 ✈ KORD - KLGA

Flight Track Log - Related Links

Times and Time Zones

All times are in EDT time to prevent confusion due to time zone crossing. See the TCF3494 flight status page for this flight to view local times or setup timezone preferences in your user account.

Time Position Orientation Groundspeed Altitude Reporting Facility
EDT Latitude Longitude Course Direction KTS MPH feet Rate Location/Type
08:21PM 41.9167 -87.9000 120° Southeast 180 207 2,100  Level Chicago TRACON
08:22PM 41.9008 -87.8628 120° Southeast 197 227 3,400 2,340 Climbing Chicago Center
08:23PM 41.8389 -87.7783 135° Southeast 257 296 6,400 2,940 Climbing Chicago Center
08:24PM 41.8269 -87.6767 99° East 299 344 9,500 2,760 Climbing Chicago Center
08:25PM 41.8478 -87.5683 75° East 301 346 12,200 2,400 Climbing Chicago Center
08:26PM 41.8703 -87.4542 75° East 316 364 14,500 2,160 Climbing Chicago Center
08:27PM 41.8933 -87.3353 75° East 330 380 16,800 2,220 Climbing Chicago Center
08:28PM 41.9208 -87.1894 76° East 339 390 19,200 1,680 Climbing Chicago Center
08:29PM 41.9236 -87.0558 88° East 375 432 20,300 1,200 Climbing Chicago Center
08:30PM 41.9186 -86.9081 93° East 398 458 21,800 1,440 Climbing Chicago Center
08:31PM 41.9108 -86.7556 94° East 409 471 23,300 1,440 Climbing Chicago Center
08:32PM 41.9028 -86.6053 94° East 420 483 24,800 1,500 Climbing Chicago Center
08:33PM 41.8933 -86.4142 94° East 429 494 26,500 1,440 Climbing Chicago Center
08:34PM 41.8856 -86.2511 94° East 437 503 27,800 1,080 Climbing Chicago Center
08:35PM 41.8775 -86.0883 94° East 440 506 28,800 960 Climbing Chicago Center
08:36PM 41.8675 -85.9175 94° East 448 516 29,800 1,200 Climbing Chicago Center
08:37PM 41.8594 -85.7542 94° East 448 516 31,300 1,200 Climbing Chicago Center
08:38PM 41.8506 -85.5903 94° East 441 507 32,400 960 Climbing Chicago Center
08:39PM 41.8431 -85.4239 93° East 441 507 33,300 900 Climbing Chicago Center
08:40PM 41.8322 -85.2575 95° East 446 513 34,300 780 Climbing Chicago Center
08:41PM 41.8197 -85.0608 95° East 447 514 35,000 300 Climbing Chicago Center
08:42PM 41.8083 -84.8889 95° East 461 531 35,000  Level Chicago Center
08:43PM 41.7978 -84.7181 95° East 461 531 35,000  Level Chicago Center
08:44PM 41.7911 -84.6136 95° East 455 524 35,000  Level Cleveland Center
08:45PM 41.7803 -84.4428 95° East 455 524 35,000  Level Cleveland Center
08:46PM 41.7797 -84.2731 90° East 455 524 35,000  Level Cleveland Center
08:47PM 41.7719 -84.1192 94° East 455 524 35,000  Level Cleveland Center
08:48PM 41.7708 -83.9522 90° East 455 524 35,000  Level Cleveland Center
08:49PM 41.7694 -83.7794 91° East 455 524 35,000  Level Cleveland Center
08:51PM 41.7575 -83.4392 93° East 461 531 35,000  Level Cleveland Center
08:52PM 41.7408 -83.2714 98° East 461 531 35,000  Level Cleveland Center
08:53PM 41.7239 -83.1011 98° East 466 536 35,000  Level Cleveland Center
08:54PM 41.7067 -82.9306 98° East 466 536 35,000  Level Cleveland Center
08:55PM 41.6872 -82.7436 98° East 466 536 35,000  Level Cleveland Center
08:56PM 41.6717 -82.5764 97° East 466 536 35,000  Level Cleveland Center
08:57PM 41.6536 -82.4061 98° East 466 536 35,000  Level Cleveland Center
08:58PM 41.6392 -82.2558 97° East 466 536 35,000  Level Cleveland Center
08:59PM 41.6208 -82.0831 98° East 466 536 35,000  Level Cleveland Center
09:00PM 41.6019 -81.9161 99° East 466 536 35,000  Level Cleveland Center
09:01PM 41.5831 -81.7269 98° East 466 536 35,000  Level Cleveland Center
09:02PM 41.5661 -81.5572 98° East 466 536 35,000  Level Cleveland Center
09:04PM 41.5225 -81.2183 100° East 466 536 35,000  Level Cleveland Center
09:05PM 41.5047 -81.0461 98° East 466 536 35,000  Level Cleveland Center
09:06PM 41.4967 -80.8936 94° East 466 536 35,000  Level Cleveland Center
09:07PM 41.4931 -80.7189 92° East 466 536 35,000  Level Cleveland Center
09:08PM 41.4889 -80.5500 92° East 455 524 35,000  Level Cleveland Center
09:09PM 41.4825 -80.3808 93° East 462 532 35,000  Level Cleveland Center
09:10PM 41.4800 -80.1925 91° East 457 526 35,000  Level Cleveland Center
09:11PM 41.4792 -80.0178 90° East 457 526 35,000  Level Cleveland Center
09:12PM 41.4742 -79.8681 93° East 452 520 35,000  Level Cleveland Center
09:13PM 41.4731 -79.6936 90° East 458 527 35,000  Level Cleveland Center
09:14PM 41.4672 -79.5164 92° East 463 533 35,000  Level Cleveland Center
09:15PM 41.4675 -79.3417 90° East 468 539 35,000  Level Cleveland Center
09:16PM 41.4550 -79.1647 95° East 473 544 35,000  Level Cleveland Center
09:17PM 41.4175 -78.9994 107° East 473 544 35,000  Level Cleveland Center
09:18PM 41.3753 -78.8122 107° East 473 544 35,000 -360 Level Cleveland Center
09:19PM 41.3372 -78.6500 107° East 473 544 34,300 -660 Descending Cleveland Center
09:21PM 41.2583 -78.3200 108° East 453 521 33,000 -420 Descending New York Center
09:22PM 41.2225 -78.1642 107° East 453 521 33,000  Level New York Center
09:23PM 41.1989 -78.0044 101° East 453 521 33,000  Level New York Center
09:24PM 41.1772 -77.8450 100° East 441 507 33,000  Level New York Center
09:25PM 41.1575 -77.6856 99° East 435 501 33,000 -360 Level New York Center
09:26PM 41.1378 -77.5211 99° East 435 501 32,300 -1,140 Descending New York Center
09:27PM 41.1133 -77.3617 101° East 435 501 30,800 -1,620 Descending New York Center
09:28PM 41.0933 -77.1972 99° East 435 501 29,100 -1,680 Descending New York Center
09:29PM 41.0708 -77.0325 100° East 440 506 27,400 -1,680 Descending New York Center
09:30PM 41.0481 -76.8708 101° East 440 506 25,800 -1,800 Descending New York Center
09:31PM 41.0272 -76.7067 99° East 440 506 23,900 -1,920 Descending New York Center
09:32PM 40.9950 -76.5553 106° East 440 506 22,100 -1,800 Descending New York Center
09:33PM 40.9586 -76.4067 108° East 429 494 20,300 -1,800 Descending New York Center
09:34PM 40.9292 -76.2778 107° East 417 480 18,500 -1,560 Descending New York Center
09:35PM 40.8958 -76.1378 107° East 406 467 17,200 -1,620 Descending New York Center
09:36PM 40.8569 -75.9867 109° East 400 460 15,300 -1,500 Descending New York Center
09:37PM 40.8253 -75.8525 107° East 389 448 14,200 -1,200 Descending New York Center
09:38PM 40.7933 -75.7186 107° East 383 441 13,000 -600 Descending New York Center
09:39PM 40.7614 -75.5875 108° East 383 441 13,000  Level New York Center
09:40PM 40.7272 -75.4536 109° East 375 432 13,000  Level New York Center
09:41PM 40.6989 -75.3203 106° East 375 432 13,000 -60 Level New York Center
09:42PM 40.6728 -75.1844 104° East 370 426 12,900 -1,020 Descending New York Center
09:43PM 40.6181 -75.0853 126° Southeast 364 419 11,000 -1,500 Descending New York Center
09:44PM 40.5594 -74.9778 126° Southeast 364 419 10,000 -540 Descending New York Center
09:45PM 40.5203 -74.8469 111° Southeast 359 413 10,000  Level New York Center
09:46PM 40.4828 -74.7247 112° Southeast 359 413 10,000  Level New York Center
09:47PM 40.4619 -74.5981 102° East 354 407 10,000  Level New York Center
09:48PM 40.4578 -74.4725 92° East 349 402 10,000 -420 Level New York Center
09:49PM 40.4839 -74.3700 71° East 313 360 9,200 -1,200 Descending New York Center
09:50PM 40.5133 -74.2925 63° Northeast 276 318 7,600 -1,140 Descending New York Center
09:51PM 40.5575 -74.2100 55° Northeast 248 285 7,000 -600 Descending New York Center
09:52PM 40.5881 -74.1542 54° Northeast 221 254 6,400 -1,140 Descending New York Center
09:53PM 40.6278 -74.0825 54° Northeast 216 249 4,800 -1,320 Descending New York Center
09:54PM 40.6539 -74.0372 53° Northeast 195 224 3,800 -1,140 Descending New York Center
09:55PM 40.6869 -73.9786 53° Northeast 182 209 2,500 -660 Descending New York Center
09:56PM 40.7067 -73.9411 55° Northeast 148 170 2,500 -360 Level New York Center
09:57PM 40.7222 -73.8981 65° Northeast 122 140 1,800 -720 Descending New York Center